Damascus, VA

18:22 EDT je la 22an de oktobro 2014 (GMT -0400)
Friendship | Change Station
CLOSE
Current Station
Personaj Veter-Stacioj
Location: Glade Spring, VA
Alteco: 614 m
Najbaraj veter-stacioj
Aktiva averto: Frost Advisory

Elev 614 m 36.73 °N, 81.74 °W | Updated 5 seconds ago

Nuboplena
Nuboplena
8.0 °C
Sentas kiel 8 °C
N
0.0
Vento Varianta Vento from OrNOr
Gusts 1.6 km/h

hodiaŭ
High -- | Low -- °C
--% Ebla precip.
hieraŭ
High -- | Low -- °C
Precip. -- mm
7:40 AM 6:41 PM
Malkreskanta Lunarko, 1% visible
Aerpremo 1022 hPa
Vidodistanco 11.3 kilometroj
Nuboj Nuboplena 670 m
Venta
kvazaŭtemperaturo
8 °C
Rosopunkto 5 °C
Humido 84%
Pluvokvanto 0 mm
Neĝprofundo Not available.
UV 0 out of 12
Pollen 1.30 out of 12
Aerkvalito Not available.
Flu Activity Local Activity
METAR KVJI 222215Z AUTO 36005KT 7SM -DZ OVC022 08/06 A3019 RMK AO2 T00800055

More Conditions Fewer Conditions

Aerpremo 1022 hPa
Vidodistanco 11.3 kilometroj
Nuboj Nuboplena 670 m
Venta
kvazaŭtemperaturo
8 °C
Rosopunkto 5 °C
Humido 84%
Pluvokvanto 0 mm
Neĝprofundo Not available.
UV 0 out of 12
Pollen 1.30 out of 12
Aerkvalito Not available.
Flu Activity Local Activity
METAR KVJI 222215Z AUTO 36005KT 7SM -DZ OVC022 08/06 A3019 RMK AO2 T00800055

More Conditions Fewer Conditions

10-Day Weather Forecast

Almanac

Astronomio

Oct. 22, 2014 Leviĝo Subiro
Aktuala tempo 07:40 EDT 18:41 EDT
Civila krepusko 07:14 EDT 19:08 EDT
Naŭtika krepusko 06:44 EDT 19:38 EDT
Astronomia krepusko 06:14 EDT 20:08 EDT
Luno 06:23 EDT 18:06 EDT
Daŭro de videbla lumo 11h 53m
Daŭro de tago
11h 00m
Tomorrow will be 2m 11s shorter.
Malkreskanta Lunarko, 1% of the Moon is Illuminated
hodiaŭ
Malkreskanta Lunarko
Oct 23
Nova
Oct 30
Unua kvaronluno
Nov 6
Plenlumo
Nov 14
Lasta kvaronluno

Hodiaŭaj ekstremaĵoj

State Highs State Lows

Community

WunderPhotos

Upload Photos

1,764,064 photos uploaded!

WunderBlogs® & News

Nearby

Neĝa profundeco

Station Depth Alteco
No new snow has been reported.

Earthquake Activity

Urbo Distance Mag. Time & Date
No recent earthquake activity has been reported nearby.
Minimum magnitude displayed is 2.5.

Coastal Water Temperatures

Loko Temperaturo
No Stations Reporting

Najbaraj veter-stacioj